createdAt,value
2019-03-26T00:01:07.681Z,2.45
2019-03-26T00:03:36.068Z,3.37
2019-03-26T00:06:04.603Z,2.47
2019-03-26T00:08:33.189Z,1.62
2019-03-26T00:11:01.557Z,4.60
2019-03-26T00:13:30.062Z,2.92
2019-03-26T00:15:58.430Z,3.25
2019-03-26T00:18:26.917Z,3.80
2019-03-26T00:20:55.344Z,3.40
2019-03-26T00:23:23.824Z,2.17
2019-03-26T00:25:52.301Z,5.90
2019-03-26T00:28:20.749Z,12.47
2019-03-26T00:30:49.271Z,20.77
2019-03-26T00:33:17.665Z,14.68
2019-03-26T00:35:46.180Z,15.72
2019-03-26T00:38:14.693Z,9.25
2019-03-26T00:40:43.084Z,10.10
2019-03-26T00:43:11.620Z,8.48
2019-03-26T00:45:39.979Z,9.10
2019-03-26T00:48:08.415Z,7.35
2019-03-26T00:50:37.001Z,5.55
2019-03-26T00:53:05.475Z,9.83
2019-03-26T00:55:33.946Z,8.35
2019-03-26T00:58:02.483Z,5.58
2019-03-26T01:00:36.749Z,9.00
2019-03-26T01:03:05.386Z,6.30
2019-03-26T01:05:33.871Z,8.68
2019-03-26T01:08:02.302Z,5.15
2019-03-26T01:10:30.726Z,5.97
2019-03-26T01:12:59.253Z,6.80
2019-03-26T01:15:27.749Z,7.22
2019-03-26T01:17:56.294Z,6.62
2019-03-26T01:20:24.825Z,6.55
2019-03-26T01:22:53.268Z,5.47
2019-03-26T01:25:21.653Z,5.78
2019-03-26T01:27:50.152Z,6.05
2019-03-26T01:30:18.609Z,7.45
2019-03-26T01:32:47.118Z,5.92
2019-03-26T01:35:15.447Z,6.65
2019-03-26T01:37:43.869Z,4.35
2019-03-26T01:40:12.349Z,7.35
2019-03-26T01:42:40.822Z,6.37
2019-03-26T01:45:09.281Z,4.40
2019-03-26T01:47:37.796Z,4.22
2019-03-26T01:50:06.249Z,5.22
2019-03-26T01:52:34.720Z,4.40
2019-03-26T01:55:04.073Z,4.75
2019-03-26T01:57:32.433Z,7.25
2019-03-26T02:00:00.892Z,4.25
2019-03-26T02:02:29.273Z,3.17
2019-03-26T02:05:00.343Z,2.22
2019-03-26T02:07:27.864Z,2.77
2019-03-26T02:09:56.325Z,3.55
2019-03-26T02:12:24.760Z,2.87
2019-03-26T02:14:53.141Z,2.05
2019-03-26T02:17:21.541Z,2.20
2019-03-26T02:19:50.033Z,2.77
2019-03-26T02:22:18.541Z,3.12
2019-03-26T02:24:46.933Z,1.45
2019-03-26T02:27:15.410Z,2.98
2019-03-26T02:29:43.920Z,2.47
2019-03-26T02:32:12.284Z,1.55
2019-03-26T02:34:40.770Z,1.40
2019-03-26T02:37:09.217Z,2.00
2019-03-26T02:39:37.678Z,1.55
2019-03-26T02:42:06.064Z,1.40
2019-03-26T02:44:35.719Z,1.20
2019-03-26T02:47:04.133Z,3.08
2019-03-26T02:49:32.591Z,1.87
2019-03-26T02:52:01.052Z,1.02
2019-03-26T02:54:29.477Z,1.25
2019-03-26T02:56:57.838Z,0.85
2019-03-26T02:59:26.222Z,1.95
2019-03-26T03:01:54.709Z,1.47
2019-03-26T03:04:23.176Z,0.95
2019-03-26T03:06:51.753Z,2.05
2019-03-26T03:09:20.275Z,1.30
2019-03-26T03:11:48.630Z,1.35
2019-03-26T03:14:17.042Z,1.27
2019-03-26T03:16:45.606Z,1.22
2019-03-26T03:19:15.834Z,3.25
2019-03-26T03:21:44.112Z,1.98
2019-03-26T03:24:12.589Z,1.55
2019-03-26T03:26:41.131Z,1.30
2019-03-26T03:29:09.480Z,0.80
2019-03-26T03:31:37.909Z,2.30
2019-03-26T03:34:06.447Z,1.07
2019-03-26T03:36:38.538Z,1.13
2019-03-26T03:39:07.636Z,0.90
2019-03-26T03:41:36.156Z,1.50
2019-03-26T03:44:04.581Z,1.47
2019-03-26T03:46:33.123Z,3.83
2019-03-26T03:49:01.685Z,3.17
2019-03-26T03:51:30.147Z,1.77
2019-03-26T03:53:58.534Z,1.62
2019-03-26T03:56:27.036Z,4.12
2019-03-26T03:58:55.438Z,2.95
2019-03-26T04:01:24.141Z,3.02
2019-03-26T04:03:52.601Z,2.33
2019-03-26T04:06:21.087Z,3.50
2019-03-26T04:08:49.533Z,3.55
2019-03-26T04:11:17.933Z,2.50
2019-03-26T04:13:46.373Z,1.52
2019-03-26T04:16:14.831Z,2.45
2019-03-26T04:18:43.291Z,2.42
2019-03-26T04:21:11.769Z,2.47
2019-03-26T04:23:40.066Z,2.22
2019-03-26T04:26:08.515Z,2.35
2019-03-26T04:28:37.000Z,4.25
2019-03-26T04:31:05.372Z,1.57
2019-03-26T04:33:33.854Z,3.10
2019-03-26T04:36:02.332Z,3.05
2019-03-26T04:38:30.767Z,1.65
2019-03-26T04:40:59.167Z,2.33
2019-03-26T04:43:27.692Z,2.27
2019-03-26T04:45:56.157Z,1.32
2019-03-26T04:48:24.533Z,3.55
2019-03-26T04:50:52.939Z,1.22
2019-03-26T04:53:21.456Z,2.50
2019-03-26T04:55:49.855Z,2.70
2019-03-26T04:58:18.283Z,2.27
2019-03-26T05:00:46.645Z,2.27
2019-03-26T05:03:15.000Z,2.40
2019-03-26T05:05:43.470Z,2.10
2019-03-26T05:08:11.999Z,1.80
2019-03-26T05:10:40.506Z,3.33
2019-03-26T05:13:08.857Z,1.65
2019-03-26T05:15:37.355Z,2.40
2019-03-26T05:18:05.730Z,2.30
2019-03-26T05:20:34.165Z,1.52
2019-03-26T05:23:02.753Z,2.67
2019-03-26T05:25:31.233Z,2.40
2019-03-26T05:27:59.739Z,1.85
2019-03-26T05:30:28.232Z,2.45
2019-03-26T05:32:56.689Z,1.85
2019-03-26T05:35:25.089Z,1.87
2019-03-26T05:37:53.565Z,2.08
2019-03-26T05:40:21.944Z,2.85
2019-03-26T05:42:50.382Z,3.98
2019-03-26T05:45:18.753Z,2.55
2019-03-26T05:47:47.080Z,2.65
2019-03-26T05:50:15.502Z,2.15
2019-03-26T05:52:43.942Z,4.05
2019-03-26T05:55:12.376Z,3.08
2019-03-26T05:57:40.863Z,4.28
2019-03-26T06:00:12.835Z,2.47
2019-03-26T06:02:41.242Z,2.90
2019-03-26T06:05:09.682Z,1.45
2019-03-26T06:07:38.060Z,2.05
2019-03-26T06:10:07.556Z,4.17
2019-03-26T06:12:35.949Z,1.98
2019-03-26T06:15:06.252Z,3.12
2019-03-26T06:17:34.765Z,2.80
2019-03-26T06:20:04.573Z,2.25
2019-03-26T06:22:33.064Z,3.05
2019-03-26T06:25:01.471Z,3.90
2019-03-26T06:27:29.897Z,2.35
2019-03-26T06:29:58.357Z,3.22
2019-03-26T06:32:26.823Z,3.90
2019-03-26T06:34:55.184Z,3.12
2019-03-26T06:37:23.656Z,2.00
2019-03-26T06:39:52.064Z,2.65
2019-03-26T06:42:20.538Z,3.30
2019-03-26T06:44:49.008Z,4.35
2019-03-26T06:47:17.417Z,3.58
2019-03-26T06:49:45.750Z,3.75
2019-03-26T06:52:14.293Z,2.22
2019-03-26T06:54:42.635Z,3.20
2019-03-26T06:57:10.925Z,2.70
2019-03-26T06:59:39.381Z,3.80
2019-03-26T07:02:07.785Z,2.25
2019-03-26T07:04:38.038Z,3.75
2019-03-26T07:07:06.513Z,3.27
2019-03-26T07:09:34.803Z,3.40
2019-03-26T07:12:03.102Z,2.50
2019-03-26T07:14:31.547Z,2.42
2019-03-26T07:16:59.905Z,3.27
2019-03-26T07:19:28.262Z,4.10
2019-03-26T07:21:56.727Z,2.83
2019-03-26T07:24:25.186Z,4.92
2019-03-26T07:26:53.763Z,4.92
2019-03-26T07:29:23.422Z,3.80
2019-03-26T07:31:51.925Z,4.17
2019-03-26T07:34:20.301Z,3.65
2019-03-26T07:36:48.808Z,4.87
2019-03-26T07:39:17.220Z,3.92
2019-03-26T07:42:05.193Z,3.15
2019-03-26T07:44:35.372Z,3.05
2019-03-26T07:47:03.829Z,2.58
2019-03-26T07:49:32.314Z,4.72
2019-03-26T07:52:00.904Z,2.45
2019-03-26T07:54:29.195Z,3.02
2019-03-26T07:56:57.764Z,2.87
2019-03-26T07:59:26.254Z,4.00
2019-03-26T08:01:54.676Z,3.20
2019-03-26T08:04:23.183Z,3.40
2019-03-26T08:06:51.549Z,4.12
2019-03-26T08:09:20.069Z,3.85
2019-03-26T08:11:48.569Z,2.45
2019-03-26T08:14:16.920Z,5.42
2019-03-26T08:16:45.384Z,3.85
2019-03-26T08:19:13.922Z,2.72
2019-03-26T08:21:42.305Z,3.98
2019-03-26T08:24:10.699Z,4.72
2019-03-26T08:26:39.204Z,4.12
2019-03-26T08:29:07.649Z,4.33
2019-03-26T08:31:36.001Z,4.53
2019-03-26T08:34:04.406Z,3.72
2019-03-26T08:36:32.783Z,4.10
2019-03-26T08:39:01.246Z,4.40
2019-03-26T08:41:29.735Z,3.58
2019-03-26T08:43:58.109Z,3.45
2019-03-26T08:46:26.634Z,6.20
2019-03-26T08:48:55.063Z,4.55
2019-03-26T08:51:23.451Z,6.75
2019-03-26T08:53:51.899Z,4.67
2019-03-26T08:56:20.522Z,5.22
2019-03-26T08:58:48.862Z,4.35
2019-03-26T09:01:17.617Z,6.40
2019-03-26T09:03:45.981Z,4.20
2019-03-26T09:06:14.473Z,5.42
2019-03-26T09:08:42.981Z,6.17
2019-03-26T09:11:11.493Z,3.30
2019-03-26T09:13:39.953Z,3.35
2019-03-26T09:16:08.415Z,4.80
2019-03-26T09:18:36.818Z,4.35
2019-03-26T09:21:05.247Z,6.87
2019-03-26T09:23:33.706Z,5.03
2019-03-26T09:26:02.115Z,2.52
2019-03-26T09:28:30.586Z,4.10
2019-03-26T09:30:59.059Z,4.12
2019-03-26T09:33:27.535Z,2.92
2019-03-26T09:35:55.899Z,3.45
2019-03-26T09:38:33.557Z,2.72
2019-03-26T09:40:54.455Z,4.03
2019-03-26T09:43:22.933Z,3.62
2019-03-26T09:45:52.853Z,3.92
2019-03-26T09:48:21.323Z,2.77
2019-03-26T09:50:49.789Z,3.67
2019-03-26T09:53:18.262Z,3.67
2019-03-26T09:55:46.625Z,6.70
2019-03-26T09:58:14.976Z,3.77
2019-03-26T10:00:43.640Z,3.27
2019-03-26T10:03:12.089Z,2.40
2019-03-26T10:05:40.461Z,4.03
2019-03-26T10:08:08.957Z,3.15
2019-03-26T10:10:37.318Z,3.08
2019-03-26T10:13:05.741Z,3.15
2019-03-26T10:15:34.212Z,3.37
2019-03-26T10:18:02.733Z,3.60
2019-03-26T10:20:31.203Z,4.00
2019-03-26T10:22:59.590Z,5.60
2019-03-26T10:25:28.123Z,3.65
2019-03-26T10:27:56.528Z,2.00
2019-03-26T10:30:40.156Z,2.75
2019-03-26T10:33:08.799Z,4.47
2019-03-26T10:35:37.229Z,3.20
2019-03-26T10:38:05.621Z,3.08
2019-03-26T10:40:36.477Z,4.22
2019-03-26T10:43:05.050Z,2.75
2019-03-26T10:45:33.473Z,2.92
2019-03-26T10:48:01.819Z,3.17
2019-03-26T10:50:30.199Z,3.25
2019-03-26T10:52:58.700Z,3.17
2019-03-26T10:55:27.078Z,2.70
2019-03-26T10:57:55.561Z,3.22
2019-03-26T11:00:24.355Z,2.65
2019-03-26T11:02:54.193Z,3.05
2019-03-26T11:05:22.669Z,2.15
2019-03-26T11:07:51.212Z,1.90
2019-03-26T11:10:19.653Z,2.90
2019-03-26T11:12:48.053Z,2.17
2019-03-26T11:15:16.554Z,4.72
2019-03-26T11:17:45.020Z,2.42
2019-03-26T11:20:13.437Z,3.52
2019-03-26T11:22:41.873Z,4.83
2019-03-26T11:25:12.148Z,4.22
2019-03-26T11:27:40.404Z,3.60
2019-03-26T11:30:08.830Z,1.85
2019-03-26T11:32:37.495Z,4.95
2019-03-26T11:35:07.260Z,2.98
2019-03-26T11:37:35.790Z,3.92
2019-03-26T11:40:07.974Z,2.87
2019-03-26T11:42:36.487Z,3.12
2019-03-26T11:45:09.187Z,1.82
2019-03-26T11:47:39.019Z,1.50
2019-03-26T11:50:07.366Z,2.40
2019-03-26T11:52:35.789Z,3.20
2019-03-26T11:55:06.077Z,3.90
2019-03-26T11:57:34.536Z,3.80
2019-03-26T12:00:03.157Z,1.75
2019-03-26T12:02:31.696Z,2.27
2019-03-26T12:05:00.328Z,3.27
2019-03-26T12:07:28.773Z,2.08
2019-03-26T12:09:57.249Z,3.08
2019-03-26T12:12:25.677Z,3.62
2019-03-26T12:14:54.048Z,2.45
2019-03-26T12:17:22.536Z,1.75
2019-03-26T12:19:50.986Z,2.25
2019-03-26T12:22:19.437Z,3.52
2019-03-26T12:24:47.859Z,2.35
2019-03-26T12:27:36.694Z,3.22
2019-03-26T12:30:07.445Z,3.20
2019-03-26T12:32:35.840Z,3.20
2019-03-26T12:35:06.569Z,2.70
2019-03-26T12:37:34.989Z,4.53
2019-03-26T12:40:05.742Z,1.95
2019-03-26T12:42:34.126Z,3.67
2019-03-26T12:45:02.637Z,3.75
2019-03-26T12:47:31.052Z,3.55
2019-03-26T12:49:59.457Z,3.55
2019-03-26T12:52:27.903Z,2.67
2019-03-26T12:54:56.375Z,2.08
2019-03-26T12:57:24.817Z,2.67
2019-03-26T12:59:53.199Z,2.10
2019-03-26T13:02:21.660Z,2.42
2019-03-26T13:04:50.202Z,2.17
2019-03-26T13:07:18.625Z,2.12
2019-03-26T13:09:47.025Z,2.27
2019-03-26T13:12:15.536Z,3.42
2019-03-26T13:14:43.996Z,3.17
2019-03-26T13:17:12.472Z,4.70
2019-03-26T13:19:41.016Z,3.70
2019-03-26T13:22:09.362Z,4.22
2019-03-26T13:24:37.885Z,2.30
2019-03-26T13:27:06.411Z,3.17
2019-03-26T13:29:34.902Z,2.77
2019-03-26T13:32:03.301Z,3.30
2019-03-26T13:34:31.749Z,2.85
2019-03-26T13:37:00.281Z,2.12
2019-03-26T13:39:28.698Z,1.52
2019-03-26T13:41:57.003Z,1.82
2019-03-26T13:44:26.454Z,2.05
2019-03-26T13:46:54.796Z,2.87
2019-03-26T13:49:23.098Z,1.60
2019-03-26T13:51:51.580Z,2.70
2019-03-26T13:54:20.009Z,1.95
2019-03-26T13:56:48.495Z,5.58
2019-03-26T13:59:16.922Z,4.25
2019-03-26T14:01:45.402Z,1.80
2019-03-26T14:04:13.894Z,2.90
2019-03-26T14:06:42.337Z,1.92
2019-03-26T14:09:10.780Z,2.47
2019-03-26T14:11:39.277Z,3.27
2019-03-26T14:14:07.660Z,2.83
2019-03-26T14:16:36.142Z,3.00
2019-03-26T14:19:04.683Z,1.75
2019-03-26T14:21:33.057Z,1.60
2019-03-26T14:24:01.470Z,3.08
2019-03-26T14:26:29.885Z,2.70
2019-03-26T14:28:58.169Z,2.80
2019-03-26T14:31:26.541Z,1.65
2019-03-26T14:33:54.928Z,4.83
2019-03-26T14:36:23.319Z,2.20
2019-03-26T14:38:51.758Z,2.62
2019-03-26T14:41:20.202Z,2.00
2019-03-26T14:43:48.587Z,2.95
2019-03-26T14:46:17.059Z,2.58
2019-03-26T14:48:45.530Z,2.65
2019-03-26T14:51:15.069Z,1.80
2019-03-26T14:53:43.581Z,2.55
2019-03-26T14:56:12.078Z,2.37
2019-03-26T14:58:40.480Z,1.40
2019-03-26T15:01:08.936Z,2.55
2019-03-26T15:03:37.540Z,1.95
2019-03-26T15:06:05.958Z,3.08
2019-03-26T15:08:34.361Z,1.42
2019-03-26T15:11:08.336Z,1.30
2019-03-26T15:13:32.992Z,2.67
2019-03-26T15:16:01.443Z,2.52
2019-03-26T15:18:29.852Z,1.65
2019-03-26T15:20:58.209Z,5.72
2019-03-26T15:23:27.809Z,1.90
2019-03-26T15:25:56.169Z,1.70
2019-03-26T15:28:24.593Z,2.08
2019-03-26T15:30:53.062Z,2.62
2019-03-26T15:33:21.520Z,2.85
2019-03-26T15:35:49.983Z,3.75
2019-03-26T15:38:18.461Z,2.72
2019-03-26T15:40:47.068Z,3.12
2019-03-26T15:43:15.436Z,1.70
2019-03-26T15:45:44.048Z,3.80
2019-03-26T15:48:12.472Z,2.17
2019-03-26T15:50:45.680Z,2.60
2019-03-26T15:53:14.427Z,1.72
2019-03-26T15:55:42.946Z,2.45
2019-03-26T15:58:11.405Z,3.08
2019-03-26T16:00:40.194Z,1.42
2019-03-26T16:03:08.600Z,2.65
2019-03-26T16:05:36.984Z,1.65
2019-03-26T16:08:05.337Z,2.22
2019-03-26T16:10:33.843Z,1.70
2019-03-26T16:13:02.201Z,2.47
2019-03-26T16:15:43.128Z,2.87
2019-03-26T16:18:00.799Z,2.77
2019-03-26T16:20:29.349Z,1.92
2019-03-26T16:22:57.692Z,2.45
2019-03-26T16:25:25.982Z,2.42
2019-03-26T16:27:54.397Z,3.08
2019-03-26T16:30:22.848Z,4.00
2019-03-26T16:32:51.149Z,2.75
2019-03-26T16:35:19.442Z,2.08
2019-03-26T16:37:47.889Z,2.45
2019-03-26T16:40:17.207Z,1.80
2019-03-26T16:42:45.674Z,2.00
2019-03-26T16:45:14.186Z,3.25
2019-03-26T16:47:42.619Z,2.98
2019-03-26T16:50:10.979Z,1.80
2019-03-26T16:52:39.416Z,4.10
2019-03-26T16:55:07.921Z,2.60
2019-03-26T16:57:36.391Z,2.90
2019-03-26T17:00:07.299Z,3.55
2019-03-26T17:02:35.596Z,2.20
2019-03-26T17:05:25.263Z,2.12
2019-03-26T17:07:53.765Z,3.50
2019-03-26T17:10:22.185Z,3.25
2019-03-26T17:12:50.706Z,2.62
2019-03-26T17:15:19.243Z,2.37
2019-03-26T17:17:47.629Z,3.47
2019-03-26T17:20:16.137Z,2.70
2019-03-26T17:22:44.588Z,2.65
2019-03-26T17:25:13.127Z,3.17
2019-03-26T17:27:41.571Z,2.50
2019-03-26T17:30:10.074Z,3.50
2019-03-26T17:32:38.488Z,4.80
2019-03-26T17:35:07.018Z,3.00
2019-03-26T17:37:35.469Z,2.90
2019-03-26T17:40:04.850Z,3.22
2019-03-26T17:42:33.281Z,3.58
2019-03-26T17:45:01.697Z,2.92
2019-03-26T17:47:30.161Z,3.60
2019-03-26T17:49:58.650Z,3.25
2019-03-26T17:52:27.009Z,3.98
2019-03-26T17:54:55.368Z,3.75
2019-03-26T17:57:23.717Z,3.45
2019-03-26T17:59:52.028Z,3.42
2019-03-26T18:02:20.413Z,3.42
2019-03-26T18:04:48.811Z,3.20
2019-03-26T18:07:17.177Z,4.17
2019-03-26T18:09:45.584Z,2.80
2019-03-26T18:12:13.981Z,6.80
2019-03-26T18:14:42.428Z,4.30
2019-03-26T18:17:10.791Z,3.33
2019-03-26T18:19:39.172Z,5.30
2019-03-26T18:22:07.571Z,3.52
2019-03-26T18:24:35.948Z,3.15
2019-03-26T18:27:04.791Z,3.65
2019-03-26T18:29:33.286Z,3.20
2019-03-26T18:32:01.626Z,3.92
2019-03-26T18:34:30.142Z,3.52
2019-03-26T18:36:58.708Z,4.42
2019-03-26T18:39:27.091Z,3.72
2019-03-26T18:41:55.562Z,3.02
2019-03-26T18:44:24.018Z,3.90
2019-03-26T18:46:52.484Z,3.75
2019-03-26T18:49:20.914Z,3.37
2019-03-26T18:51:49.240Z,4.20
2019-03-26T18:54:17.602Z,3.85
2019-03-26T18:56:46.059Z,3.55
2019-03-26T18:59:14.414Z,3.80
2019-03-26T19:01:42.754Z,3.22
2019-03-26T19:04:12.970Z,2.90
2019-03-26T19:06:41.416Z,4.72
2019-03-26T19:09:09.822Z,2.85
2019-03-26T19:11:38.302Z,2.33
2019-03-26T19:14:07.761Z,3.08
2019-03-26T19:16:36.162Z,4.70
2019-03-26T19:19:04.581Z,4.30
2019-03-26T19:21:33.142Z,3.25
2019-03-26T19:24:04.425Z,3.00
2019-03-26T19:26:31.738Z,3.20
2019-03-26T19:29:00.302Z,3.87
2019-03-26T19:31:28.701Z,3.58
2019-03-26T19:33:57.126Z,3.22
2019-03-26T19:36:25.610Z,3.02
2019-03-26T19:38:54.070Z,2.50
2019-03-26T19:41:22.596Z,2.62
2019-03-26T19:43:51.078Z,3.62
2019-03-26T19:46:19.491Z,4.20
2019-03-26T19:48:47.920Z,3.42
2019-03-26T19:51:16.389Z,3.87
2019-03-26T19:53:44.821Z,2.27
2019-03-26T19:56:13.381Z,2.95
2019-03-26T19:58:41.778Z,2.67
2019-03-26T20:01:10.216Z,2.92
2019-03-26T20:03:38.719Z,3.30
2019-03-26T20:06:13.447Z,3.45
2019-03-26T20:08:37.294Z,4.17
2019-03-26T20:11:05.675Z,3.62
2019-03-26T20:13:34.063Z,4.58
2019-03-26T20:16:02.485Z,3.37
2019-03-26T20:18:31.218Z,3.95
2019-03-26T20:20:59.789Z,3.22
2019-03-26T20:23:28.229Z,3.40
2019-03-26T20:25:56.767Z,3.45
2019-03-26T20:28:26.699Z,3.65
2019-03-26T20:31:15.000Z,3.42
2019-03-26T20:33:43.680Z,4.33
2019-03-26T20:36:12.205Z,4.00
2019-03-26T20:38:40.848Z,3.20
2019-03-26T20:41:09.373Z,4.25
2019-03-26T20:43:37.914Z,5.95
2019-03-26T20:46:06.424Z,4.62
2019-03-26T20:48:34.818Z,4.80
2019-03-26T20:51:03.326Z,4.00
2019-03-26T20:53:32.013Z,3.95
2019-03-26T20:56:01.098Z,4.47
2019-03-26T20:58:29.650Z,4.00
2019-03-26T21:00:58.295Z,4.40
2019-03-26T21:03:26.822Z,5.03
2019-03-26T21:05:55.422Z,4.33
2019-03-26T21:08:24.419Z,3.17
2019-03-26T21:10:53.312Z,6.97
2019-03-26T21:13:22.233Z,4.67
2019-03-26T21:15:57.097Z,4.05
2019-03-26T21:18:21.664Z,5.78
2019-03-26T21:20:50.696Z,4.55
2019-03-26T21:23:19.581Z,4.10
2019-03-26T21:25:48.611Z,3.70
2019-03-26T21:28:17.479Z,4.65
2019-03-26T21:30:46.485Z,4.53
2019-03-26T21:33:15.188Z,4.00
2019-03-26T21:35:43.778Z,4.25
2019-03-26T21:38:12.415Z,4.22
2019-03-26T21:40:41.072Z,3.67
2019-03-26T21:43:09.830Z,4.50
2019-03-26T21:45:39.235Z,4.10
2019-03-26T21:48:08.120Z,4.72
2019-03-26T21:50:36.609Z,5.87
2019-03-26T21:53:05.096Z,4.42
2019-03-26T21:55:33.667Z,4.20
2019-03-26T21:58:02.126Z,4.62
2019-03-26T22:00:30.585Z,5.47
2019-03-26T22:02:59.094Z,5.22
2019-03-26T22:05:27.549Z,5.85
2019-03-26T22:07:55.972Z,4.10
2019-03-26T22:10:24.432Z,5.95
2019-03-26T22:12:52.802Z,7.40
2019-03-26T22:15:21.418Z,4.72
2019-03-26T22:17:49.913Z,5.05
2019-03-26T22:20:18.352Z,5.20
2019-03-26T22:22:46.926Z,6.05
2019-03-26T22:25:15.422Z,5.17
2019-03-26T22:27:43.955Z,5.17
2019-03-26T22:30:12.507Z,4.92
2019-03-26T22:32:41.059Z,7.30
2019-03-26T22:35:28.980Z,3.85
2019-03-26T22:37:57.539Z,5.25
2019-03-26T22:40:31.755Z,4.40
2019-03-26T22:43:00.198Z,7.20
2019-03-26T22:45:28.679Z,6.17
2019-03-26T22:47:57.167Z,5.92
2019-03-26T22:50:25.601Z,7.97
2019-03-26T22:52:54.058Z,10.05
2019-03-26T22:55:22.526Z,8.90
2019-03-26T22:57:51.023Z,10.40
2019-03-26T23:00:20.325Z,7.80
2019-03-26T23:02:48.611Z,6.90
2019-03-26T23:05:17.074Z,8.23
2019-03-26T23:07:45.547Z,6.95
2019-03-26T23:10:14.309Z,6.33
2019-03-26T23:12:42.733Z,7.62
2019-03-26T23:15:16.151Z,7.37
2019-03-26T23:17:44.537Z,6.85
2019-03-26T23:20:12.961Z,6.37
2019-03-26T23:22:41.418Z,8.05
2019-03-26T23:25:09.851Z,8.03
2019-03-26T23:27:38.400Z,5.20
2019-03-26T23:30:10.311Z,5.08
2019-03-26T23:32:38.707Z,5.90
2019-03-26T23:35:07.252Z,6.03
2019-03-26T23:37:35.656Z,5.08
2019-03-26T23:40:04.785Z,6.95
2019-03-26T23:42:33.216Z,5.33
2019-03-26T23:45:01.766Z,5.42
2019-03-26T23:47:49.683Z,4.70
2019-03-26T23:50:18.224Z,5.00
2019-03-26T23:52:46.692Z,4.70
2019-03-26T23:55:15.140Z,6.12
2019-03-26T23:57:43.460Z,5.15
